createdAt,value
2022-10-09T00:00:07.695Z,9.680941
2022-10-09T00:01:07.659Z,9.681009
2022-10-09T00:02:07.690Z,9.680609
2022-10-09T00:03:07.651Z,9.680578
2022-10-09T00:04:07.656Z,9.680341
2022-10-09T00:05:07.667Z,9.680902
2022-10-09T00:06:07.663Z,9.681062
2022-10-09T00:07:07.638Z,9.680886
2022-10-09T00:08:07.627Z,9.681135
2022-10-09T00:09:07.634Z,9.681279
2022-10-09T00:10:07.614Z,9.681507
2022-10-09T00:11:07.615Z,9.681037
2022-10-09T00:12:07.626Z,9.680816
2022-10-09T00:13:07.589Z,9.681020
2022-10-09T00:14:07.588Z,9.681178
2022-10-09T00:15:07.591Z,9.680775
2022-10-09T00:16:07.574Z,9.680941
2022-10-09T00:17:07.668Z,9.680939
2022-10-09T00:18:07.577Z,9.680876
2022-10-09T00:19:07.576Z,9.680943
2022-10-09T00:20:07.581Z,9.680700
2022-10-09T00:21:07.561Z,9.680753
2022-10-09T00:22:07.567Z,9.681017
2022-10-09T00:23:07.549Z,9.680824
2022-10-09T00:24:07.561Z,9.681353
2022-10-09T00:25:07.523Z,9.680908
2022-10-09T00:26:07.536Z,9.680945
2022-10-09T00:27:07.523Z,9.680937
2022-10-09T00:28:07.549Z,9.681252
2022-10-09T00:29:07.547Z,9.680796
2022-10-09T00:30:07.517Z,9.680964
2022-10-09T00:31:07.584Z,9.681682
2022-10-09T00:32:07.517Z,9.680946
2022-10-09T00:33:07.475Z,9.680953
2022-10-09T00:34:07.472Z,9.681373
2022-10-09T00:35:07.483Z,9.681439
2022-10-09T00:36:07.461Z,9.681256
2022-10-09T00:37:07.459Z,9.681309
2022-10-09T00:38:07.468Z,9.681456
2022-10-09T00:39:07.487Z,9.681219
2022-10-09T00:40:07.432Z,9.680603
2022-10-09T00:41:07.443Z,9.680771
2022-10-09T00:42:07.429Z,9.681033
2022-10-09T00:43:07.410Z,9.680963
2022-10-09T00:44:07.417Z,9.681170
2022-10-09T00:45:07.438Z,9.681778
2022-10-09T00:46:07.447Z,9.681071
2022-10-09T00:47:07.400Z,9.680922
2022-10-09T00:48:07.387Z,9.680779
2022-10-09T00:49:07.394Z,9.681072
2022-10-09T00:50:07.374Z,9.681199
2022-10-09T00:51:07.358Z,9.681122
2022-10-09T00:52:07.393Z,9.680997
2022-10-09T00:53:07.354Z,9.680804
2022-10-09T00:54:07.351Z,9.680917
2022-10-09T00:55:07.367Z,9.681192
2022-10-09T00:56:07.342Z,9.681652
2022-10-09T00:57:07.358Z,9.681320
2022-10-09T00:58:07.326Z,9.681238
2022-10-09T00:59:07.320Z,9.681373
2022-10-09T01:00:07.321Z,9.681326
2022-10-09T01:01:07.356Z,9.681083
2022-10-09T01:02:07.352Z,9.680653
2022-10-09T01:03:07.319Z,9.681127
2022-10-09T01:04:07.308Z,9.680979
2022-10-09T01:05:07.290Z,9.680341
2022-10-09T01:06:07.282Z,9.681055
2022-10-09T01:07:07.305Z,9.681140
2022-10-09T01:08:07.271Z,9.680533
2022-10-09T01:09:07.255Z,9.680570
2022-10-09T01:10:07.246Z,9.680782
2022-10-09T01:11:07.240Z,9.680939
2022-10-09T01:12:07.259Z,9.680715
2022-10-09T01:13:07.230Z,9.680522
2022-10-09T01:14:07.246Z,9.680737
2022-10-09T01:15:07.228Z,9.681452
2022-10-09T01:16:07.270Z,9.681435
2022-10-09T01:17:07.211Z,9.680909
2022-10-09T01:18:07.205Z,9.680394
2022-10-09T01:19:07.214Z,9.680424
2022-10-09T01:20:07.191Z,9.679626
2022-10-09T01:21:07.212Z,9.679614
2022-10-09T01:22:07.182Z,9.679246
2022-10-09T01:23:07.171Z,9.678936
2022-10-09T01:24:07.190Z,9.679544
2022-10-09T01:25:07.193Z,9.679625
2022-10-09T01:26:07.173Z,9.679772
2022-10-09T01:27:07.151Z,9.679654
2022-10-09T01:28:07.213Z,9.679542
2022-10-09T01:29:07.192Z,9.679992
2022-10-09T01:30:07.133Z,9.680597
2022-10-09T01:31:07.199Z,9.680019
2022-10-09T01:32:07.115Z,9.680113
2022-10-09T01:33:07.108Z,9.680317
2022-10-09T01:34:07.120Z,9.680591
2022-10-09T01:35:07.142Z,9.681183
2022-10-09T01:36:07.128Z,9.681175
2022-10-09T01:37:07.097Z,9.681274
2022-10-09T01:38:07.092Z,9.681633
2022-10-09T01:39:07.081Z,9.681690
2022-10-09T01:40:07.098Z,9.680790
2022-10-09T01:41:07.089Z,9.680684
2022-10-09T01:42:07.086Z,9.680577
2022-10-09T01:43:07.060Z,9.680801
2022-10-09T01:44:07.064Z,9.680537
2022-10-09T01:45:07.065Z,9.680382
2022-10-09T01:46:07.077Z,9.681309
2022-10-09T01:47:07.054Z,9.680737
2022-10-09T01:48:07.065Z,9.680995
2022-10-09T01:49:07.032Z,9.681045
2022-10-09T01:50:07.026Z,9.680408
2022-10-09T01:51:07.017Z,9.680590
2022-10-09T01:52:07.008Z,9.680588
2022-10-09T01:53:07.001Z,9.680888
2022-10-09T01:54:07.026Z,9.680856
2022-10-09T01:55:06.995Z,9.680814
2022-10-09T01:56:07.011Z,9.681108
2022-10-09T01:57:06.991Z,9.681368
2022-10-09T01:58:06.975Z,9.681142
2022-10-09T01:59:06.971Z,9.681161
2022-10-09T02:00:06.993Z,9.681285
2022-10-09T02:01:06.967Z,9.681183
2022-10-09T02:02:07.134Z,9.681261
2022-10-09T02:03:06.965Z,9.681153
2022-10-09T02:04:06.941Z,9.681217
2022-10-09T02:05:06.965Z,9.681217
2022-10-09T02:06:06.937Z,9.680993
2022-10-09T02:07:06.926Z,9.681064
2022-10-09T02:08:06.928Z,9.681070
2022-10-09T02:09:06.917Z,9.680964
2022-10-09T02:10:06.913Z,9.681188
2022-10-09T02:11:06.922Z,9.681124
2022-10-09T02:12:06.901Z,9.681223
2022-10-09T02:13:06.896Z,9.681133
2022-10-09T02:14:06.895Z,9.681286
2022-10-09T02:15:06.886Z,9.681241
2022-10-09T02:16:06.972Z,9.681003
2022-10-09T02:17:06.890Z,9.681219
2022-10-09T02:18:06.875Z,9.681090
2022-10-09T02:19:06.864Z,9.681246
2022-10-09T02:20:06.851Z,9.680932
2022-10-09T02:21:06.850Z,9.681170
2022-10-09T02:22:06.840Z,9.680964
2022-10-09T02:23:06.865Z,9.680939
2022-10-09T02:24:06.868Z,9.680766
2022-10-09T02:25:06.832Z,9.680609
2022-10-09T02:26:06.849Z,9.680902
2022-10-09T02:27:06.820Z,9.681254
2022-10-09T02:28:06.885Z,9.681234
2022-10-09T02:29:06.823Z,9.681151
2022-10-09T02:30:06.862Z,9.681161
2022-10-09T02:31:06.856Z,9.680933
2022-10-09T02:32:06.791Z,9.680726
2022-10-09T02:33:06.786Z,9.681271
2022-10-09T02:34:06.783Z,9.681131
2022-10-09T02:35:06.773Z,9.681024
2022-10-09T02:36:06.793Z,9.680942
2022-10-09T02:37:06.762Z,9.680943
2022-10-09T02:38:06.758Z,9.681112
2022-10-09T02:39:06.766Z,9.680974
2022-10-09T02:40:10.577Z,9.681058
2022-10-09T02:41:06.752Z,9.680892
2022-10-09T02:42:06.789Z,9.680932
2022-10-09T02:43:06.735Z,9.681174
2022-10-09T02:44:06.721Z,9.681184
2022-10-09T02:45:06.725Z,9.681018
2022-10-09T02:46:06.743Z,9.681229
2022-10-09T02:47:06.723Z,9.680984
2022-10-09T02:48:06.732Z,9.681078
2022-10-09T02:49:06.699Z,9.681305
2022-10-09T02:50:06.708Z,9.681041
2022-10-09T02:51:06.688Z,9.681007
2022-10-09T02:52:06.686Z,9.680552
2022-10-09T02:53:06.687Z,9.680698
2022-10-09T02:54:06.693Z,9.680520
2022-10-09T02:55:06.667Z,9.680898
2022-10-09T02:56:06.665Z,9.681281
2022-10-09T02:57:06.657Z,9.681008
2022-10-09T02:58:06.663Z,9.680977
2022-10-09T02:59:06.635Z,9.680816
2022-10-09T03:00:06.657Z,9.681129
2022-10-09T03:01:06.654Z,9.681209
2022-10-09T03:02:06.817Z,9.681087
2022-10-09T03:03:06.685Z,9.681097
2022-10-09T03:04:06.633Z,9.681443
2022-10-09T03:05:06.614Z,9.681834
2022-10-09T03:06:06.646Z,9.681010
2022-10-09T03:07:06.604Z,9.681256
2022-10-09T03:08:06.600Z,9.680832
2022-10-09T03:09:06.598Z,9.681190
2022-10-09T03:10:06.585Z,9.681400
2022-10-09T03:11:06.576Z,9.681604
2022-10-09T03:12:06.597Z,9.681170
2022-10-09T03:13:06.574Z,9.680998
2022-10-09T03:14:06.594Z,9.680833
2022-10-09T03:15:06.575Z,9.681209
2022-10-09T03:16:06.613Z,9.681055
2022-10-09T03:17:06.549Z,9.681222
2022-10-09T03:18:06.538Z,9.681051
2022-10-09T03:19:06.534Z,9.681254
2022-10-09T03:20:06.548Z,9.681637
2022-10-09T03:21:06.525Z,9.681504
2022-10-09T03:22:06.518Z,9.681221
2022-10-09T03:23:06.513Z,9.681291
2022-10-09T03:24:06.523Z,9.681298
2022-10-09T03:25:06.499Z,9.681119
2022-10-09T03:26:06.532Z,9.681277
2022-10-09T03:27:06.511Z,9.681214
2022-10-09T03:28:06.525Z,9.681194
2022-10-09T03:29:06.491Z,9.681322
2022-10-09T03:30:06.478Z,9.681369
2022-10-09T03:31:06.562Z,9.681859
2022-10-09T03:32:06.575Z,9.681224
2022-10-09T03:33:06.451Z,9.681085
2022-10-09T03:34:06.452Z,9.681222
2022-10-09T03:35:06.474Z,9.681427
2022-10-09T03:36:06.451Z,9.681203
2022-10-09T03:37:06.464Z,9.681299
2022-10-09T03:38:06.448Z,9.681197
2022-10-09T03:39:06.426Z,9.681301
2022-10-09T03:40:06.438Z,9.681036
2022-10-09T03:41:06.439Z,9.681268
2022-10-09T03:42:06.414Z,9.681067
2022-10-09T03:43:06.393Z,9.681310
2022-10-09T03:44:06.400Z,9.681283
2022-10-09T03:45:06.394Z,9.681296
2022-10-09T03:46:06.412Z,9.680976
2022-10-09T03:47:06.381Z,9.680808
2022-10-09T03:48:06.386Z,9.681004
2022-10-09T03:49:06.377Z,9.681008
2022-10-09T03:50:06.372Z,9.681087
2022-10-09T03:51:06.358Z,9.680972
2022-10-09T03:52:06.382Z,9.681178
2022-10-09T03:53:06.355Z,9.681102
2022-10-09T03:54:06.349Z,9.681187
2022-10-09T03:55:06.343Z,9.681106
2022-10-09T03:56:06.335Z,9.681083
2022-10-09T03:57:06.333Z,9.681109
2022-10-09T03:58:06.351Z,9.681050
2022-10-09T03:59:06.310Z,9.681087
2022-10-09T04:00:06.319Z,9.681082
2022-10-09T04:01:06.375Z,9.681018
2022-10-09T04:02:06.339Z,9.681085
2022-10-09T04:03:06.352Z,9.681219
2022-10-09T04:04:06.328Z,9.681029
2022-10-09T04:05:06.284Z,9.680752
2022-10-09T04:06:06.285Z,9.680964
2022-10-09T04:07:06.271Z,9.681094
2022-10-09T04:08:06.267Z,9.680752
2022-10-09T04:09:06.258Z,9.681149
2022-10-09T04:10:06.281Z,9.681135
2022-10-09T04:11:06.253Z,9.681056
2022-10-09T04:12:06.247Z,9.680926
2022-10-09T04:13:06.246Z,9.680836
2022-10-09T04:14:06.238Z,9.681454
2022-10-09T04:15:06.229Z,9.681224
2022-10-09T04:16:06.266Z,9.680905
2022-10-09T04:17:06.213Z,9.680947
2022-10-09T04:18:06.216Z,9.681149
2022-10-09T04:19:06.202Z,9.681179
2022-10-09T04:20:06.201Z,9.681000
2022-10-09T04:21:06.213Z,9.681207
2022-10-09T04:22:06.187Z,9.681183
2022-10-09T04:23:06.192Z,9.681213
2022-10-09T04:24:06.178Z,9.681133
2022-10-09T04:25:06.175Z,9.680937
2022-10-09T04:26:06.169Z,9.681164
2022-10-09T04:27:06.180Z,9.681274
2022-10-09T04:28:06.223Z,9.681320
2022-10-09T04:29:06.151Z,9.681083
2022-10-09T04:30:06.168Z,9.681099
2022-10-09T04:31:06.146Z,9.681273
2022-10-09T04:32:06.139Z,9.681233
2022-10-09T04:33:10.358Z,9.681350
2022-10-09T04:34:06.131Z,9.681204
2022-10-09T04:35:06.120Z,9.680995
2022-10-09T04:36:06.139Z,9.680527
2022-10-09T04:37:06.121Z,9.680397
2022-10-09T04:38:06.131Z,9.680867
2022-10-09T04:39:06.131Z,9.681221
2022-10-09T04:40:06.137Z,9.681388
2022-10-09T04:41:06.127Z,9.681130
2022-10-09T04:42:06.114Z,9.681211
2022-10-09T04:43:06.083Z,9.681145
2022-10-09T04:44:06.093Z,9.681145
2022-10-09T04:45:06.065Z,9.681204
2022-10-09T04:46:06.115Z,9.681129
2022-10-09T04:47:10.505Z,9.681560
2022-10-09T04:48:07.069Z,9.681595
2022-10-09T04:49:06.049Z,9.681313
2022-10-09T04:50:06.075Z,9.680964
2022-10-09T04:51:06.034Z,9.680794
2022-10-09T04:52:06.042Z,9.680820
2022-10-09T04:53:06.055Z,9.680988
2022-10-09T04:54:06.022Z,9.680866
2022-10-09T04:55:06.038Z,9.680799
2022-10-09T04:56:06.006Z,9.680620
2022-10-09T04:57:05.997Z,9.680941
2022-10-09T04:58:06.005Z,9.681028
2022-10-09T04:59:05.990Z,9.681178
2022-10-09T05:00:06.010Z,9.680956
2022-10-09T05:01:06.033Z,9.681008
2022-10-09T05:02:06.004Z,9.681115
2022-10-09T05:03:05.969Z,9.681244
2022-10-09T05:04:05.978Z,9.681208
2022-10-09T05:05:05.956Z,9.681158
2022-10-09T05:06:05.977Z,9.681209
2022-10-09T05:07:05.949Z,9.680877
2022-10-09T05:08:05.964Z,9.680819
2022-10-09T05:09:05.956Z,9.680777
2022-10-09T05:10:05.939Z,9.681314
2022-10-09T05:11:05.930Z,9.681133
2022-10-09T05:12:05.930Z,9.681508
2022-10-09T05:13:05.944Z,9.681148
2022-10-09T05:14:05.940Z,9.681182
2022-10-09T05:15:05.914Z,9.681296
2022-10-09T05:16:05.991Z,9.681138
2022-10-09T05:17:14.018Z,9.681266
2022-10-09T05:18:06.887Z,9.681034
2022-10-09T05:19:05.888Z,9.681145
2022-10-09T05:20:05.877Z,9.681111
2022-10-09T05:21:05.870Z,9.681018
2022-10-09T05:22:05.886Z,9.681174
2022-10-09T05:23:05.864Z,9.680971
2022-10-09T05:24:10.122Z,9.681029
2022-10-09T05:25:05.858Z,9.680877
2022-10-09T05:26:05.851Z,9.680806
2022-10-09T05:27:05.861Z,9.680682
2022-10-09T05:28:05.991Z,9.680694
2022-10-09T05:29:05.830Z,9.680589
2022-10-09T05:30:05.825Z,9.681050
2022-10-09T05:31:05.824Z,9.681046
2022-10-09T05:32:05.877Z,9.681167
2022-10-09T05:33:05.809Z,9.680868
2022-10-09T05:34:05.804Z,9.681206
2022-10-09T05:35:05.791Z,9.681405
2022-10-09T05:36:05.792Z,9.681367
2022-10-09T05:37:05.790Z,9.681146
2022-10-09T05:38:05.841Z,9.680992
2022-10-09T05:39:05.778Z,9.681045
2022-10-09T05:40:05.772Z,9.681118
2022-10-09T05:41:05.762Z,9.681263
2022-10-09T05:42:05.763Z,9.681270
2022-10-09T05:43:05.756Z,9.681204
2022-10-09T05:44:05.779Z,9.681243
2022-10-09T05:45:05.753Z,9.681074
2022-10-09T05:46:05.824Z,9.681086
2022-10-09T05:47:05.734Z,9.681143
2022-10-09T05:48:05.763Z,9.681130
2022-10-09T05:49:05.724Z,9.681036
2022-10-09T05:50:05.737Z,9.681071
2022-10-09T05:51:05.709Z,9.680861
2022-10-09T05:52:05.713Z,9.680970
2022-10-09T05:53:05.703Z,9.681144
2022-10-09T05:54:05.702Z,9.681053
2022-10-09T05:55:05.711Z,9.681113
2022-10-09T05:56:05.695Z,9.681079
2022-10-09T05:57:05.690Z,9.681219
2022-10-09T05:58:05.719Z,9.681272
2022-10-09T05:59:05.671Z,9.681057
2022-10-09T06:00:05.698Z,9.680898
2022-10-09T06:01:05.715Z,9.681053
2022-10-09T06:02:05.711Z,9.681295
2022-10-09T06:03:05.649Z,9.681337
2022-10-09T06:04:05.648Z,9.681119
2022-10-09T06:05:05.643Z,9.681035
2022-10-09T06:06:05.682Z,9.681332
2022-10-09T06:07:05.624Z,9.681319
2022-10-09T06:08:05.624Z,9.681288
2022-10-09T06:09:05.615Z,9.681006
2022-10-09T06:10:05.614Z,9.681162
2022-10-09T06:11:05.615Z,9.681172
2022-10-09T06:12:05.627Z,9.681185
2022-10-09T06:13:05.599Z,9.681253
2022-10-09T06:14:05.609Z,9.681176
2022-10-09T06:15:05.597Z,9.681204
2022-10-09T06:16:05.583Z,9.680958
2022-10-09T06:17:05.664Z,9.681083
2022-10-09T06:18:05.586Z,9.681220
2022-10-09T06:19:05.573Z,9.681229
2022-10-09T06:20:05.573Z,9.681145
2022-10-09T06:21:05.564Z,9.681049
2022-10-09T06:22:05.550Z,9.681122
2022-10-09T06:23:05.542Z,9.680977
2022-10-09T06:24:12.571Z,9.681095
2022-10-09T06:25:05.543Z,9.681046
2022-10-09T06:26:05.544Z,9.680925
2022-10-09T06:27:05.518Z,9.680989
2022-10-09T06:28:05.535Z,9.681191
2022-10-09T06:29:05.518Z,9.681235
2022-10-09T06:30:05.526Z,9.680989
2022-10-09T06:31:05.743Z,9.681028
2022-10-09T06:32:05.489Z,9.680928
2022-10-09T06:33:05.499Z,9.681137
2022-10-09T06:34:05.491Z,9.680894
2022-10-09T06:35:05.476Z,9.680709
2022-10-09T06:36:10.024Z,9.681047
2022-10-09T06:37:05.472Z,9.680947
2022-10-09T06:38:05.456Z,9.681191
2022-10-09T06:39:05.481Z,9.681110
2022-10-09T06:40:05.469Z,9.681265
2022-10-09T06:41:05.453Z,9.682240
2022-10-09T06:42:05.489Z,9.681235
2022-10-09T06:43:05.434Z,9.681385
2022-10-09T06:44:05.427Z,9.681523
2022-10-09T06:45:05.426Z,9.681532
2022-10-09T06:46:05.481Z,9.680808
2022-10-09T06:47:05.437Z,9.680620
2022-10-09T06:48:05.405Z,9.681355
2022-10-09T06:49:05.403Z,9.681704
2022-10-09T06:50:05.394Z,9.681346
2022-10-09T06:51:05.713Z,9.681244
2022-10-09T06:52:05.386Z,9.681660
2022-10-09T06:53:05.400Z,9.681605
2022-10-09T06:54:05.383Z,9.681188
2022-10-09T06:55:05.410Z,9.681185
2022-10-09T06:56:05.370Z,9.680587
2022-10-09T06:57:05.379Z,9.681087
2022-10-09T06:58:05.381Z,9.680971
2022-10-09T06:59:05.367Z,9.681520
2022-10-09T07:00:05.331Z,9.681505
2022-10-09T07:01:05.402Z,9.681140
2022-10-09T07:02:05.396Z,9.681280
2022-10-09T07:03:05.409Z,9.681280
2022-10-09T07:04:05.345Z,9.681794
2022-10-09T07:05:05.340Z,9.680965
2022-10-09T07:06:05.310Z,9.681356
2022-10-09T07:07:05.313Z,9.681705
2022-10-09T07:08:05.298Z,9.681591
2022-10-09T07:09:05.297Z,9.681303
2022-10-09T07:10:05.306Z,9.680900
2022-10-09T07:11:05.282Z,9.681246
2022-10-09T07:12:05.277Z,9.681215
2022-10-09T07:13:05.268Z,9.681340
2022-10-09T07:14:05.261Z,9.680914
2022-10-09T07:15:05.272Z,9.681231
2022-10-09T07:16:05.303Z,9.681355
2022-10-09T07:17:05.251Z,9.681360
2022-10-09T07:18:05.238Z,9.681080
2022-10-09T07:19:05.240Z,9.682287
2022-10-09T07:20:05.228Z,9.681827
2022-10-09T07:21:05.245Z,9.681532
2022-10-09T07:22:05.236Z,9.680906
2022-10-09T07:23:05.218Z,9.681514
2022-10-09T07:24:05.227Z,9.681708
2022-10-09T07:25:05.209Z,9.681340
2022-10-09T07:26:05.205Z,9.681410
2022-10-09T07:27:05.212Z,9.681146
2022-10-09T07:28:05.406Z,9.681159
2022-10-09T07:29:05.183Z,9.681108
2022-10-09T07:30:05.180Z,9.681128
2022-10-09T07:31:05.237Z,9.681490
2022-10-09T07:32:10.238Z,9.681000
2022-10-09T07:33:05.163Z,9.681020
2022-10-09T07:34:05.150Z,9.681028
2022-10-09T07:35:05.169Z,9.681643
2022-10-09T07:36:05.133Z,9.681142
2022-10-09T07:37:05.136Z,9.681142
2022-10-09T07:38:05.140Z,9.681142
2022-10-09T07:39:05.142Z,9.681142
2022-10-09T07:40:05.214Z,9.681142
2022-10-09T07:41:05.125Z,9.681142
2022-10-09T07:42:05.119Z,9.681142
2022-10-09T07:43:05.111Z,9.681142
2022-10-09T07:44:05.136Z,9.681142
2022-10-09T07:45:05.094Z,9.681142
2022-10-09T07:46:05.181Z,9.681142
2022-10-09T07:47:05.104Z,9.681142
2022-10-09T07:48:05.069Z,9.681142
2022-10-09T07:49:05.073Z,9.681142
2022-10-09T07:50:05.061Z,9.681142
2022-10-09T07:51:05.073Z,9.681142
2022-10-09T07:52:05.078Z,9.681142
2022-10-09T07:53:05.052Z,9.681142
2022-10-09T07:54:05.035Z,9.681142
2022-10-09T07:55:05.026Z,9.681142
2022-10-09T07:56:05.036Z,9.681142
2022-10-09T07:57:05.029Z,9.681142
2022-10-09T07:58:05.033Z,9.681142
2022-10-09T07:59:05.006Z,9.681142
2022-10-09T08:00:05.002Z,9.681142
2022-10-09T08:01:05.097Z,9.681142
2022-10-09T08:02:05.095Z,9.681142
2022-10-09T08:03:05.058Z,9.681142
2022-10-09T08:04:04.978Z,9.681142
2022-10-09T08:05:05.017Z,9.681142
2022-10-09T08:06:04.975Z,9.681142
2022-10-09T08:07:04.968Z,9.681142
2022-10-09T08:08:04.956Z,9.681142
2022-10-09T08:09:04.967Z,9.681142
2022-10-09T08:10:04.946Z,9.681142
2022-10-09T08:11:04.971Z,9.681142
2022-10-09T08:12:04.934Z,9.681142
2022-10-09T08:13:04.928Z,9.681142
2022-10-09T08:14:04.931Z,9.681142
2022-10-09T08:15:04.924Z,9.681142
2022-10-09T08:16:05.006Z,9.681142
2022-10-09T08:17:04.944Z,9.681142
2022-10-09T08:18:04.911Z,9.681142
2022-10-09T08:19:04.907Z,9.681142
2022-10-09T08:20:04.891Z,9.681142
2022-10-09T08:21:04.902Z,9.681142
2022-10-09T08:22:04.883Z,9.681142
2022-10-09T08:23:04.904Z,9.681142
2022-10-09T08:24:04.901Z,9.681142
2022-10-09T08:25:04.879Z,9.681142
2022-10-09T08:26:04.866Z,9.681142
2022-10-09T08:27:04.862Z,9.681142
2022-10-09T08:28:04.962Z,9.681142
2022-10-09T08:29:04.852Z,9.681142
2022-10-09T08:30:04.864Z,9.681142
2022-10-09T08:31:04.974Z,9.681142
2022-10-09T08:32:04.831Z,9.681142
2022-10-09T08:33:04.841Z,9.681142
2022-10-09T08:34:04.872Z,9.681142
2022-10-09T08:35:04.829Z,9.681142
2022-10-09T08:36:04.815Z,9.681142
2022-10-09T08:37:04.814Z,9.681142
2022-10-09T08:38:04.793Z,9.681142
2022-10-09T08:39:04.800Z,9.681142
2022-10-09T08:40:04.804Z,9.681142
2022-10-09T08:41:04.772Z,9.681142
2022-10-09T08:42:04.775Z,9.681142
2022-10-09T08:43:04.779Z,9.681142
2022-10-09T08:44:04.770Z,9.681142
2022-10-09T08:45:04.753Z,9.681142
2022-10-09T08:46:04.870Z,9.681142
2022-10-09T08:47:04.750Z,9.681142
2022-10-09T08:48:04.741Z,9.681142
2022-10-09T08:49:04.741Z,9.681142
2022-10-09T08:50:04.748Z,9.681142
2022-10-09T08:51:04.727Z,9.681142
2022-10-09T08:52:04.711Z,9.681142
2022-10-09T08:53:04.705Z,9.681142
2022-10-09T08:54:04.695Z,9.681142
2022-10-09T08:55:04.720Z,9.681142
2022-10-09T08:56:04.692Z,9.681142
2022-10-09T08:57:04.694Z,9.681142
2022-10-09T08:58:04.677Z,9.681142
2022-10-09T08:59:04.683Z,9.681142
2022-10-09T09:00:04.675Z,9.681142
2022-10-09T09:01:04.655Z,9.681142
2022-10-09T09:02:04.723Z,9.681142
2022-10-09T09:03:04.671Z,9.681142
2022-10-09T09:04:04.637Z,9.681142
2022-10-09T09:05:04.647Z,9.681142
2022-10-09T09:06:04.629Z,9.681142
2022-10-09T09:07:04.637Z,9.681142
2022-10-09T09:08:04.627Z,9.681142
2022-10-09T09:09:04.626Z,9.681142
2022-10-09T09:10:04.667Z,9.681142
2022-10-09T09:11:04.589Z,9.681142
2022-10-09T09:12:04.582Z,9.681142
2022-10-09T09:13:04.572Z,9.681142
2022-10-09T09:14:04.565Z,9.681142
2022-10-09T09:15:04.581Z,9.681142
2022-10-09T09:16:04.642Z,9.681142
2022-10-09T09:17:04.551Z,9.681142
2022-10-09T09:18:04.548Z,9.681142
2022-10-09T09:19:04.527Z,9.681142
2022-10-09T09:20:04.556Z,9.681142
2022-10-09T09:21:04.565Z,9.681142
2022-10-09T09:22:04.513Z,9.681142
2022-10-09T09:23:04.541Z,9.681142
2022-10-09T09:24:04.492Z,9.681142
2022-10-09T09:25:04.478Z,9.681142
2022-10-09T09:26:04.466Z,9.681142
2022-10-09T09:27:04.482Z,9.681142
2022-10-09T09:28:07.678Z,9.681142
2022-10-09T09:29:04.441Z,9.681142
2022-10-09T09:30:04.447Z,9.681142
2022-10-09T09:31:04.469Z,9.681142
2022-10-09T09:32:04.409Z,9.681142
2022-10-09T09:33:04.444Z,9.681142
2022-10-09T09:34:04.423Z,9.681142
2022-10-09T09:35:04.421Z,9.681142
2022-10-09T09:36:04.405Z,9.681142
2022-10-09T09:37:04.377Z,9.681142
2022-10-09T09:38:04.371Z,9.681142
2022-10-09T09:40:35.559Z,9.681142
2022-10-09T09:41:05.342Z,9.681142
2022-10-09T09:42:04.328Z,9.681142
2022-10-09T09:43:05.142Z,9.681142
2022-10-09T09:44:04.331Z,9.681142
2022-10-09T09:45:04.314Z,9.681142
2022-10-09T09:46:04.288Z,9.681142
2022-10-09T09:47:04.288Z,9.681142
2022-10-09T09:48:04.291Z,9.681142
2022-10-09T09:49:09.259Z,9.681142
2022-10-09T09:50:04.275Z,9.681142
2022-10-09T09:51:27.036Z,9.681142
2022-10-09T09:52:05.240Z,9.681142
2022-10-09T09:53:04.235Z,9.681142
2022-10-09T09:54:04.217Z,9.681142
2022-10-09T09:55:04.240Z,9.681142
2022-10-09T09:56:04.197Z,9.681142
2022-10-09T09:57:14.916Z,9.681142
2022-10-09T09:58:05.190Z,9.681142
2022-10-09T09:59:04.188Z,9.681142
2022-10-09T10:00:04.164Z,9.681142
2022-10-09T10:01:04.277Z,9.681142
2022-10-09T10:02:04.251Z,9.681142
2022-10-09T10:03:04.164Z,9.681142
2022-10-09T10:04:04.125Z,9.681142
2022-10-09T10:05:04.137Z,9.681142
2022-10-09T10:06:04.130Z,9.681142
2022-10-09T10:07:04.103Z,9.681142
2022-10-09T10:08:04.104Z,9.681142
2022-10-09T10:09:04.089Z,9.681142
2022-10-09T10:10:04.079Z,9.681142
2022-10-09T10:11:04.098Z,9.681142
2022-10-09T10:12:04.073Z,9.680662
2022-10-09T10:13:04.054Z,9.680662
2022-10-09T10:14:04.034Z,9.680662
2022-10-09T10:15:04.031Z,9.681109
2022-10-09T10:16:04.070Z,9.681896
2022-10-09T10:17:04.040Z,9.681896
2022-10-09T10:18:04.028Z,9.681896
2022-10-09T10:19:04.312Z,9.681896
2022-10-09T10:20:03.997Z,9.681896
2022-10-09T10:21:03.997Z,9.681896
2022-10-09T10:22:04.000Z,9.681896
2022-10-09T10:23:03.969Z,9.681896
2022-10-09T10:24:03.965Z,9.681896
2022-10-09T10:25:03.952Z,9.680744
2022-10-09T10:26:03.935Z,9.680744
2022-10-09T10:27:03.933Z,9.681177
2022-10-09T10:28:03.980Z,9.680942
2022-10-09T10:29:03.928Z,9.681047
2022-10-09T10:30:03.922Z,9.681139
2022-10-09T10:31:03.942Z,9.681139
2022-10-09T10:32:03.890Z,9.681302
2022-10-09T10:33:03.949Z,9.681252
2022-10-09T10:34:03.874Z,9.681290
2022-10-09T10:35:03.865Z,9.681621
2022-10-09T10:36:03.861Z,9.680852
2022-10-09T10:37:03.852Z,9.681288
2022-10-09T10:38:03.838Z,9.680803
2022-10-09T10:39:03.851Z,9.680946
2022-10-09T10:40:03.816Z,9.681121
2022-10-09T10:41:03.824Z,9.681358
2022-10-09T10:42:03.801Z,9.680473
2022-10-09T10:43:03.791Z,9.681082
2022-10-09T10:44:03.794Z,9.681276
2022-10-09T10:45:03.764Z,9.681015
2022-10-09T10:46:03.768Z,9.680317
2022-10-09T10:47:03.766Z,9.679857
2022-10-09T10:48:03.757Z,9.680696
2022-10-09T10:49:03.754Z,9.680634
2022-10-09T10:50:03.729Z,9.680832
2022-10-09T10:51:03.724Z,9.680850
2022-10-09T10:52:03.708Z,9.680618
2022-10-09T10:53:03.707Z,9.680796
2022-10-09T10:54:03.698Z,9.681253
2022-10-09T10:55:03.711Z,9.681325
2022-10-09T10:56:05.405Z,9.681033
2022-10-09T10:57:03.675Z,9.680930
2022-10-09T10:58:03.674Z,9.681184
2022-10-09T10:59:03.655Z,9.680710
2022-10-09T11:00:03.638Z,9.680619
2022-10-09T11:01:03.671Z,9.680522
2022-10-09T11:02:03.655Z,9.680513
2022-10-09T11:03:03.729Z,9.679820
2022-10-09T11:04:03.621Z,9.679532
2022-10-09T11:05:03.607Z,9.680265
2022-10-09T11:06:03.607Z,9.680388
2022-10-09T11:07:03.592Z,9.680388
2022-10-09T11:08:03.620Z,9.680388
2022-10-09T11:09:03.566Z,9.681132
2022-10-09T11:10:03.559Z,9.681269
2022-10-09T11:11:03.570Z,9.681015
2022-10-09T11:12:03.547Z,9.681105
2022-10-09T11:13:04.014Z,9.681428
2022-10-09T11:14:03.543Z,9.681520
2022-10-09T11:15:03.514Z,9.681697
2022-10-09T11:16:03.584Z,9.681137
2022-10-09T11:17:03.505Z,9.680849
2022-10-09T11:18:03.488Z,9.680504
2022-10-09T11:19:03.510Z,9.680994
2022-10-09T11:20:03.485Z,9.681181
2022-10-09T11:21:03.474Z,9.681333
2022-10-09T11:22:03.468Z,9.681962
2022-10-09T11:23:03.459Z,9.681213
2022-10-09T11:24:03.432Z,9.681007
2022-10-09T11:25:03.475Z,9.681257
2022-10-09T11:26:03.449Z,9.681521
2022-10-09T11:27:03.866Z,9.681052
2022-10-09T11:28:03.515Z,9.680960
2022-10-09T11:29:03.400Z,9.680882
2022-10-09T11:30:03.403Z,9.681445
2022-10-09T11:31:03.422Z,9.681747
2022-10-09T11:32:03.485Z,9.681495
2022-10-09T11:33:03.393Z,9.681381
2022-10-09T11:34:03.358Z,9.681456
2022-10-09T11:35:03.347Z,9.681123
2022-10-09T11:36:03.347Z,9.681232
2022-10-09T11:37:03.368Z,9.681048
2022-10-09T11:38:03.339Z,9.681070
2022-10-09T11:39:03.321Z,9.680983
2022-10-09T11:40:03.325Z,9.681139
2022-10-09T11:41:06.496Z,9.681200
2022-10-09T11:42:03.294Z,9.680794
2022-10-09T11:43:03.350Z,9.681060
2022-10-09T11:44:03.288Z,9.680951
2022-10-09T11:45:03.289Z,9.680750